Time;durP1;ratioP1;P1;durP2;ratioP2;P2;SDS_P1;SDS_P2;PMS_P1;PMS_P2;Temp;Humidity;BMP_temperature;BMP_pressure;BME280_temperature;BME280_humidity;BME280_pressure;Samples;Min_cycle;Max_cycle;Signal;HPM_P1;HPM_P2
2023/10/09 00:01:50;;;;;;;2.10;1.08;;;;;;;;;;5046002;28;20120;-75
2023/10/09 00:04:16;;;;;;;1.48;0.70;;;;;;;;;;5049236;28;20078;-74
2023/10/09 00:06:42;;;;;;;1.40;1.00;;;;;;;;;;5048188;28;20032;-74
2023/10/09 00:11:45;;;;;;;1.55;1.00;;;;;;;;;;5047408;28;20132;-75
2023/10/09 00:14:11;;;;;;;1.70;0.93;;;;;;;;;;5052475;28;20124;-74
2023/10/09 00:16:43;;;;;;;2.50;1.23;;;;;;;;;;5052726;28;20133;-74
2023/10/09 00:19:20;;;;;;;2.72;1.40;;;;;;;;;;5050241;28;20095;-75
2023/10/09 00:21:49;;;;;;;1.60;0.73;;;;;;;;;;5036168;28;20043;-75
2023/10/09 00:24:24;;;;;;;1.02;0.93;;;;;;;;;;5028802;28;20103;-75
2023/10/09 00:27:08;;;;;;;1.90;0.93;;;;;;;;;;5050631;28;20032;-75
2023/10/09 00:29:36;;;;;;;1.90;0.80;;;;;;;;;;5051327;28;20033;-75
2023/10/09 00:32:52;;;;;;;2.10;0.82;;;;;;;;;;5040260;28;20065;-75
2023/10/09 00:34:51;;;;;;;1.13;0.70;;;;;;;;;;5043247;28;20422;-75
2023/10/09 00:37:17;;;;;;;1.27;0.82;;;;;;;;;;5048472;28;20087;-75
2023/10/09 00:39:43;;;;;;;3.60;1.27;;;;;;;;;;5048963;28;20517;-73
2023/10/09 00:42:22;;;;;;;1.55;0.65;;;;;;;;;;5047627;28;20033;-73
2023/10/09 00:44:49;;;;;;;1.08;0.73;;;;;;;;;;5020360;28;20534;-75
2023/10/09 00:47:48;;;;;;;2.63;0.98;;;;;;;;;;5050024;28;20160;-74
2023/10/09 00:50:20;;;;;;;0.93;0.88;;;;;;;;;;5047463;28;20032;-75
2023/10/09 00:52:51;;;;;;;1.27;0.80;;;;;;;;;;5047163;28;20572;-75
2023/10/09 00:55:44;;;;;;;1.13;0.60;;;;;;;;;;5047398;28;20120;-74
2023/10/09 00:58:14;;;;;;;0.82;0.63;;;;;;;;;;5050456;28;20967;-74
2023/10/09 01:05:58;;;;;;;1.48;0.70;;;;;;;;;;5025446;28;20093;-75
2023/10/09 01:08:32;;;;;;;0.98;0.80;;;;;;;;;;5042278;28;20053;-75
2023/10/09 01:11:21;;;;;;;1.95;1.17;;;;;;;;;;5051221;28;20033;-75
2023/10/09 01:13:52;;;;;;;1.77;1.20;;;;;;;;;;5047130;28;20044;-75
2023/10/09 01:16:24;;;;;;;0.68;0.63;;;;;;;;;;5038341;28;20056;-75
2023/10/09 01:18:57;;;;;;;1.30;1.00;;;;;;;;;;5052055;28;20032;-75
2023/10/09 01:21:26;;;;;;;2.78;0.85;;;;;;;;;;5044945;28;20036;-76
2023/10/09 01:24:08;;;;;;;0.43;0.40;;;;;;;;;;5046231;28;20467;-76
2023/10/09 01:26:39;;;;;;;1.88;1.10;;;;;;;;;;5044987;28;20648;-75
2023/10/09 01:29:14;;;;;;;3.50;0.82;;;;;;;;;;5050632;28;20103;-75
2023/10/09 01:31:52;;;;;;;1.92;1.05;;;;;;;;;;5045881;28;20083;-75
2023/10/09 01:34:43;;;;;;;1.92;1.20;;;;;;;;;;5047821;28;20513;-75
2023/10/09 01:37:15;;;;;;;;;;;;;;;;;;5019914;28;20038;-76
2023/10/09 01:39:42;;;;;;;2.42;0.90;;;;;;;;;;5053382;28;19920;-75
2023/10/09 01:42:07;;;;;;;2.50;1.33;;;;;;;;;;5052830;28;20071;-75
2023/10/09 01:44:42;;;;;;;4.10;2.55;;;;;;;;;;5052841;28;20040;-75
2023/10/09 01:47:09;;;;;;;2.80;1.60;;;;;;;;;;5048333;28;20056;-76
2023/10/09 01:49:36;;;;;;;5.80;2.97;;;;;;;;;;5023878;28;20052;-74
2023/10/09 01:52:07;;;;;;;4.60;2.20;;;;;;;;;;5052531;28;20055;-76
2023/10/09 01:54:40;;;;;;;4.20;1.75;;;;;;;;;;5041505;28;20037;-74
2023/10/09 01:57:11;;;;;;;2.15;1.20;;;;;;;;;;5052456;28;20097;-75
2023/10/09 01:59:49;;;;;;;3.92;1.70;;;;;;;;;;5047242;28;20048;-75
2023/10/09 02:07:44;;;;;;;4.88;2.33;;;;;;;;;;5043128;28;20413;-75
2023/10/09 02:10:32;;;;;;;3.60;2.30;;;;;;;;;;5049216;28;20033;-74
2023/10/09 02:13:12;;;;;;;3.22;1.98;;;;;;;;;;5027669;28;20042;-74
2023/10/09 02:18:41;;;;;;;3.50;2.40;;;;;;;;;;5045960;28;20449;-73
2023/10/09 02:23:49;;;;;;;3.50;1.95;;;;;;;;;;5051866;28;20040;-75
2023/10/09 02:28:52;;;;;;;1.58;1.05;;;;;;;;;;5051425;28;20051;-74
2023/10/09 02:31:22;;;;;;;2.90;0.93;;;;;;;;;;5047502;28;20111;-75
2023/10/09 02:33:53;;;;;;;1.98;1.02;;;;;;;;;;5034197;28;20445;-75
2023/10/09 02:36:18;;;;;;;2.60;1.33;;;;;;;;;;5048250;28;20060;-75
2023/10/09 02:38:44;;;;;;;2.78;1.60;;;;;;;;;;5049552;28;20500;-75
2023/10/09 02:43:47;;;;;;;2.20;0.95;;;;;;;;;;5046314;28;20068;-74
2023/10/09 02:46:29;;;;;;;4.57;2.15;;;;;;;;;;5023675;28;20048;-75
2023/10/09 02:48:58;;;;;;;4.97;2.17;;;;;;;;;;5049407;28;20028;-74
2023/10/09 02:53:58;;;;;;;4.13;1.63;;;;;;;;;;5049815;28;20047;-75
2023/10/09 02:56:25;;;;;;;3.85;1.60;;;;;;;;;;5018518;28;20044;-74
2023/10/09 02:58:53;;;;;;;1.90;1.30;;;;;;;;;;5043279;28;20033;-76
2023/10/09 03:01:19;;;;;;;1.95;1.27;;;;;;;;;;5041312;28;20036;-74
2023/10/09 03:03:45;;;;;;;2.30;1.48;;;;;;;;;;5044645;28;20592;-76
2023/10/09 03:06:12;;;;;;;2.83;1.65;;;;;;;;;;5040564;28;20063;-74
2023/10/09 03:08:40;;;;;;;3.08;1.88;;;;;;;;;;5054627;28;20050;-74
2023/10/09 03:11:13;;;;;;;6.03;2.03;;;;;;;;;;5024536;28;20644;-75
2023/10/09 03:13:43;;;;;;;3.63;1.83;;;;;;;;;;5047130;28;20047;-75
2023/10/09 03:16:14;;;;;;;3.42;1.80;;;;;;;;;;5048528;28;20511;-75
2023/10/09 03:18:39;;;;;;;;;;;;;;;;;;5047165;28;20032;-75
2023/10/09 03:21:04;;;;;;;3.00;1.73;;;;;;;;;;5046110;28;20462;-77
2023/10/09 03:23:30;;;;;;;4.95;2.80;;;;;;;;;;5037622;28;20070;-74
2023/10/09 03:25:58;;;;;;;2.45;1.60;;;;;;;;;;5042896;28;20052;-75
2023/10/09 03:28:24;;;;;;;3.08;1.52;;;;;;;;;;5045426;28;20060;-75
2023/10/09 03:30:50;;;;;;;5.50;1.60;;;;;;;;;;5045381;28;20072;-75
2023/10/09 03:33:18;;;;;;;3.70;1.95;;;;;;;;;;5045993;28;20112;-75
2023/10/09 03:35:44;;;;;;;1.77;1.20;;;;;;;;;;5044116;28;20037;-74
2023/10/09 03:38:14;;;;;;;1.63;1.40;;;;;;;;;;5022770;28;20091;-75
2023/10/09 03:40:43;;;;;;;1.70;1.00;;;;;;;;;;5048215;28;20122;-77
2023/10/09 03:43:13;;;;;;;6.22;2.28;;;;;;;;;;5033881;28;20037;-75
2023/10/09 03:45:45;;;;;;;5.28;2.30;;;;;;;;;;5038094;28;20183;-74
2023/10/09 03:48:21;;;;;;;2.42;1.48;;;;;;;;;;5044443;28;20621;-77
2023/10/09 03:50:47;;;;;;;5.20;2.63;;;;;;;;;;5020132;28;20032;-75
2023/10/09 03:53:13;;;;;;;5.03;3.45;;;;;;;;;;5044035;28;20237;-75
2023/10/09 03:55:39;;;;;;;4.28;2.47;;;;;;;;;;5041934;28;20037;-75
2023/10/09 03:58:06;;;;;;;7.57;4.00;;;;;;;;;;5046131;28;20116;-74
2023/10/09 04:00:40;;;;;;;2.63;1.50;;;;;;;;;;5040759;28;20104;-74
2023/10/09 04:03:06;;;;;;;4.28;2.63;;;;;;;;;;5034773;28;20029;-74
2023/10/09 04:05:32;;;;;;;1.38;1.15;;;;;;;;;;5039848;28;20044;-75
2023/10/09 04:08:01;;;;;;;5.25;3.35;;;;;;;;;;5024730;28;20032;-75
2023/10/09 04:10:43;;;;;;;6.03;2.88;;;;;;;;;;5045577;28;20044;-74
2023/10/09 04:13:12;;;;;;;;;;;;;;;;;;5052565;28;20044;-76
2023/10/09 04:15:38;;;;;;;6.18;2.90;;;;;;;;;;5031303;28;19920;-74
2023/10/09 04:18:14;;;;;;;2.15;1.15;;;;;;;;;;5028201;28;20037;-76
2023/10/09 04:23:35;;;;;;;3.88;1.77;;;;;;;;;;5036100;28;20071;-76
2023/10/09 04:26:10;;;;;;;2.83;1.42;;;;;;;;;;5046369;28;20801;-74
2023/10/09 04:28:36;;;;;;;7.25;3.42;;;;;;;;;;5032950;28;20045;-73
2023/10/09 04:31:06;;;;;;;9.60;4.70;;;;;;;;;;5048661;28;20045;-75
2023/10/09 04:36:26;;;;;;;4.22;2.08;;;;;;;;;;5050215;28;20092;-74
2023/10/09 04:39:14;;;;;;;5.78;2.92;;;;;;;;;;5039374;28;20032;-74
2023/10/09 04:44:29;;;;;;;5.88;2.88;;;;;;;;;;5049393;28;20090;-73
2023/10/09 04:47:35;;;;;;;3.22;1.88;;;;;;;;;;5051900;28;20479;-75
2023/10/09 05:02:58;;;;;;;7.57;4.22;;;;;;;;;;5043353;28;20044;-74
2023/10/09 05:08:19;;;;;;;7.72;4.25;;;;;;;;;;5050038;28;20047;-74
2023/10/09 05:16:28;;;;;;;5.07;2.25;;;;;;;;;;5041457;28;20068;-75
2023/10/09 05:19:06;;;;;;;8.40;3.13;;;;;;;;;;5030823;28;20032;-72
2023/10/09 05:29:19;;;;;;;5.80;2.80;;;;;;;;;;5042881;28;20128;-75
2023/10/09 05:31:57;;;;;;;7.20;3.78;;;;;;;;;;5049255;28;20037;-76
2023/10/09 05:34:33;;;;;;;4.43;2.70;;;;;;;;;;5043036;28;20064;-75
2023/10/09 05:37:24;;;;;;;6.03;3.25;;;;;;;;;;5039811;28;20103;-76
2023/10/09 05:51:10;;;;;;;2.95;2.28;;;;;;;;;;5027589;28;20047;-75
2023/10/09 05:54:12;;;;;;;5.13;2.53;;;;;;;;;;5050211;28;20112;-74
2023/10/09 06:07:13;;;;;;;8.25;3.65;;;;;;;;;;5040903;28;20639;-74
2023/10/09 06:09:52;;;;;;;8.97;3.27;;;;;;;;;;5046033;28;20815;-74
2023/10/09 06:14:58;;;;;;;3.07;1.97;;;;;;;;;;5034521;28;20151;-74
2023/10/09 06:17:24;;;;;;;5.28;2.22;;;;;;;;;;5051383;28;20151;-75
2023/10/09 06:19:58;;;;;;;5.90;2.58;;;;;;;;;;5035836;28;20032;-74
2023/10/09 06:25:09;;;;;;;3.90;2.50;;;;;;;;;;5044913;28;20067;-74
2023/10/09 06:32:49;;;;;;;6.65;3.55;;;;;;;;;;5049287;28;20575;-75
2023/10/09 06:35:30;;;;;;;5.65;3.00;;;;;;;;;;5046286;28;20098;-74
2023/10/09 06:43:31;;;;;;;5.65;2.03;;;;;;;;;;5047623;28;20526;-74
2023/10/09 06:45:58;;;;;;;7.43;3.60;;;;;;;;;;5028304;28;20119;-74
2023/10/09 06:56:24;;;;;;;3.90;2.30;;;;;;;;;;5043246;28;21793;-74
2023/10/09 06:58:54;;;;;;;5.32;2.63;;;;;;;;;;5040995;28;20041;-74
2023/10/09 07:06:56;;;;;;;4.93;2.55;;;;;;;;;;5048456;28;20579;-74
2023/10/09 07:09:22;;;;;;;9.15;3.90;;;;;;;;;;5045417;28;20183;-75
2023/10/09 07:16:58;;;;;;;3.90;2.60;;;;;;;;;;5042553;28;20056;-74
2023/10/09 07:22:16;;;;;;;5.32;2.70;;;;;;;;;;5031550;28;20115;-75
2023/10/09 07:24:49;;;;;;;5.18;2.40;;;;;;;;;;5046104;28;20033;-74
2023/10/09 07:27:20;;;;;;;6.35;2.60;;;;;;;;;;5050226;28;20090;-75
2023/10/09 07:29:48;;;;;;;5.15;2.72;;;;;;;;;;5044621;28;20044;-75
2023/10/09 07:32:20;;;;;;;7.45;3.97;;;;;;;;;;5049082;28;20036;-75
2023/10/09 07:34:59;;;;;;;6.28;3.72;;;;;;;;;;5037143;28;20520;-74
2023/10/09 07:37:30;;;;;;;7.40;3.42;;;;;;;;;;5047249;28;20036;-75
2023/10/09 07:40:06;;;;;;;4.60;2.75;;;;;;;;;;5039715;28;20599;-75
2023/10/09 07:42:52;;;;;;;4.00;2.10;;;;;;;;;;5044767;28;20521;-75
2023/10/09 07:50:30;;;;;;;5.25;3.00;;;;;;;;;;5042760;28;20102;-74
2023/10/09 07:53:14;;;;;;;38.20;18.23;;;;;;;;;;5043279;28;20033;-75
2023/10/09 07:55:45;;;;;;;5.72;3.30;;;;;;;;;;5023093;28;20051;-74
2023/10/09 07:58:11;;;;;;;5.47;2.53;;;;;;;;;;5026901;28;20541;-74
2023/10/09 08:01:06;;;;;;;6.70;3.55;;;;;;;;;;5051296;28;20067;-74
2023/10/09 08:03:32;;;;;;;5.50;3.13;;;;;;;;;;5035223;28;20041;-76
2023/10/09 08:06:06;;;;;;;4.22;2.50;;;;;;;;;;5015260;28;20071;-75
2023/10/09 08:14:00;;;;;;;10.90;5.32;;;;;;;;;;5045704;28;20124;-74
2023/10/09 08:16:36;;;;;;;6.68;4.18;;;;;;;;;;5020230;28;20114;-76
2023/10/09 08:22:17;;;;;;;5.13;2.92;;;;;;;;;;5051736;28;20039;-73
2023/10/09 08:35:33;;;;;;;7.47;4.15;;;;;;;;;;5048435;28;20118;-74
2023/10/09 08:38:03;;;;;;;9.02;5.72;;;;;;;;;;5028429;28;20036;-73
2023/10/09 08:40:42;;;;;;;5.68;3.13;;;;;;;;;;5033299;28;20175;-75
2023/10/09 08:43:08;;;;;;;5.15;3.20;;;;;;;;;;5047239;28;20098;-74
2023/10/09 08:45:39;;;;;;;11.10;5.88;;;;;;;;;;5044726;28;20036;-76
2023/10/09 08:48:06;;;;;;;9.05;4.78;;;;;;;;;;5019949;28;20038;-77
2023/10/09 08:50:34;;;;;;;6.70;2.80;;;;;;;;;;5050110;28;20579;-75
2023/10/09 08:53:00;;;;;;;9.65;4.63;;;;;;;;;;5050202;28;20067;-75
2023/10/09 08:55:26;;;;;;;23.77;5.57;;;;;;;;;;5030826;28;20041;-76
2023/10/09 08:57:52;;;;;;;11.70;4.53;;;;;;;;;;5051282;28;20048;-74
2023/10/09 09:00:23;;;;;;;8.52;4.47;;;;;;;;;;5041861;28;20042;-74
2023/10/09 09:02:50;;;;;;;8.98;4.40;;;;;;;;;;5049836;28;20032;-74
2023/10/09 09:05:21;;;;;;;7.00;4.03;;;;;;;;;;5045360;28;20033;-74
2023/10/09 09:07:50;;;;;;;9.40;3.88;;;;;;;;;;5030008;28;20035;-74
2023/10/09 09:10:21;;;;;;;7.38;3.63;;;;;;;;;;5039275;28;20039;-74
2023/10/09 09:12:53;;;;;;;6.93;3.15;;;;;;;;;;5034294;28;20063;-73
2023/10/09 09:15:19;;;;;;;6.60;4.10;;;;;;;;;;5029135;28;20047;-74
2023/10/09 09:17:46;;;;;;;11.98;5.47;;;;;;;;;;5048974;28;20123;-73
2023/10/09 09:20:32;;;;;;;5.13;3.08;;;;;;;;;;5041004;28;20799;-73
2023/10/09 09:22:57;;;;;;;5.10;3.65;;;;;;;;;;5042887;28;20103;-74
2023/10/09 09:25:31;;;;;;;8.13;3.88;;;;;;;;;;5019923;28;20040;-74
2023/10/09 09:27:59;;;;;;;6.53;3.10;;;;;;;;;;5048881;28;20671;-74
2023/10/09 09:30:31;;;;;;;4.18;2.80;;;;;;;;;;5046094;28;20051;-74
2023/10/09 09:33:15;;;;;;;4.72;2.42;;;;;;;;;;5045119;28;20811;-77
2023/10/09 09:35:57;;;;;;;7.85;3.90;;;;;;;;;;5028177;28;20122;-77
2023/10/09 09:38:23;;;;;;;5.28;3.05;;;;;;;;;;5050076;28;20040;-74
2023/10/09 09:40:53;;;;;;;5.25;3.22;;;;;;;;;;5049872;28;20043;-74
2023/10/09 09:43:22;;;;;;;6.07;2.97;;;;;;;;;;5044164;28;20421;-74
2023/10/09 09:45:50;;;;;;;7.82;3.72;;;;;;;;;;5045094;28;20072;-74
2023/10/09 09:48:16;;;;;;;7.35;3.78;;;;;;;;;;5038863;28;20156;-74
2023/10/09 09:50:45;;;;;;;6.75;3.50;;;;;;;;;;5042616;28;20037;-74
2023/10/09 09:53:16;;;;;;;6.47;4.05;;;;;;;;;;5042390;28;20501;-74
2023/10/09 09:55:51;;;;;;;9.27;4.68;;;;;;;;;;5046669;28;20551;-74
2023/10/09 09:58:23;;;;;;;5.00;2.97;;;;;;;;;;5045450;28;20040;-74
2023/10/09 10:00:53;;;;;;;7.85;3.72;;;;;;;;;;5035361;28;20036;-73
2023/10/09 10:03:36;;;;;;;6.88;3.40;;;;;;;;;;5046151;28;20032;-74
2023/10/09 10:06:09;;;;;;;4.43;2.83;;;;;;;;;;5045948;28;20056;-74
2023/10/09 10:08:38;;;;;;;6.82;3.72;;;;;;;;;;5044074;28;20029;-74
2023/10/09 10:11:04;;;;;;;7.57;4.65;;;;;;;;;;5036699;28;20441;-74
2023/10/09 10:13:42;;;;;;;5.93;2.60;;;;;;;;;;5039604;28;20041;-74
2023/10/09 10:16:13;;;;;;;9.10;5.38;;;;;;;;;;5047766;28;20033;-74
2023/10/09 10:19:06;;;;;;;12.35;5.28;;;;;;;;;;5043307;28;20044;-74
2023/10/09 10:21:41;;;;;;;10.73;6.10;;;;;;;;;;5031859;28;20032;-74
2023/10/09 10:24:28;;;;;;;5.68;2.90;;;;;;;;;;5046803;28;20083;-74
2023/10/09 10:28:09;;;;;;;11.10;5.43;;;;;;;;;;5046514;28;20445;-74
2023/10/09 10:30:18;;;;;;;7.47;3.88;;;;;;;;;;5025952;28;20025;-74
2023/10/09 10:32:54;;;;;;;9.07;5.20;;;;;;;;;;5043493;28;20175;-74
2023/10/09 10:35:32;;;;;;;10.50;5.97;;;;;;;;;;5047362;28;20162;-74
2023/10/09 10:40:38;;;;;;;5.28;3.17;;;;;;;;;;5019434;28;20049;-74
2023/10/09 10:43:13;;;;;;;8.70;3.47;;;;;;;;;;5048881;28;20032;-74
2023/10/09 10:45:45;;;;;;;7.47;4.15;;;;;;;;;;5048341;28;20144;-74
2023/10/09 10:51:01;;;;;;;4.05;2.85;;;;;;;;;;5009328;28;20052;-74
2023/10/09 10:53:34;;;;;;;7.15;3.78;;;;;;;;;;5042533;28;20056;-74
2023/10/09 10:56:34;;;;;;;8.57;4.30;;;;;;;;;;5048007;28;20032;-74
2023/10/09 11:01:52;;;;;;;5.88;3.03;;;;;;;;;;5035182;28;20066;-74
2023/10/09 11:12:38;;;;;;;10.00;5.00;;;;;;;;;;5044947;28;20047;-74
2023/10/09 11:18:19;;;;;;;4.65;3.03;;;;;;;;;;5040183;28;20123;-74
2023/10/09 11:29:12;;;;;;;5.47;2.88;;;;;;;;;;5034708;28;20621;-74
2023/10/09 11:31:38;;;;;;;6.57;3.30;;;;;;;;;;5044615;28;20040;-74
2023/10/09 11:34:28;;;;;;;5.20;3.20;;;;;;;;;;5046558;28;20037;-74
2023/10/09 11:36:55;;;;;;;7.45;3.30;;;;;;;;;;5042219;28;20047;-74
2023/10/09 11:39:34;;;;;;;10.90;4.63;;;;;;;;;;5033830;28;20489;-74
2023/10/09 11:42:08;;;;;;;5.85;3.30;;;;;;;;;;5029327;28;20044;-74
2023/10/09 11:44:45;;;;;;;5.90;3.50;;;;;;;;;;5051097;28;20102;-74
2023/10/09 11:50:05;;;;;;;7.35;4.10;;;;;;;;;;5039410;28;20040;-74
2023/10/09 11:52:38;;;;;;;8.20;4.43;;;;;;;;;;5047345;28;20679;-74
2023/10/09 11:55:14;;;;;;;4.13;2.60;;;;;;;;;;5031340;28;20056;-74
2023/10/09 11:57:40;;;;;;;12.18;8.40;;;;;;;;;;5049144;28;20111;-74
2023/10/09 12:00:10;;;;;;;6.68;5.03;;;;;;;;;;5038510;28;20029;-74
2023/10/09 12:02:43;;;;;;;8.03;4.33;;;;;;;;;;5047037;28;20044;-74
2023/10/09 12:05:16;;;;;;;7.85;4.07;;;;;;;;;;5032643;28;20072;-74
2023/10/09 12:07:43;;;;;;;5.88;3.67;;;;;;;;;;5033332;28;20124;-74
2023/10/09 12:10:10;;;;;;;7.47;3.80;;;;;;;;;;5029987;28;20040;-74
2023/10/09 12:12:35;;;;;;;7.25;3.47;;;;;;;;;;5035129;28;20044;-74
2023/10/09 12:15:05;;;;;;;6.95;3.97;;;;;;;;;;5041041;28;20041;-74
2023/10/09 12:17:30;;;;;;;6.70;3.80;;;;;;;;;;5047687;28;20086;-74
2023/10/09 12:19:56;;;;;;;5.35;3.35;;;;;;;;;;5048440;28;20590;-74
2023/10/09 12:22:22;;;;;;;7.22;3.42;;;;;;;;;;5046984;28;20044;-74
2023/10/09 12:24:47;;;;;;;5.10;3.30;;;;;;;;;;5037562;28;20075;-73
2023/10/09 12:27:13;;;;;;;5.68;4.07;;;;;;;;;;5044075;28;20037;-74
2023/10/09 12:29:44;;;;;;;6.25;3.40;;;;;;;;;;5048272;28;20035;-74
2023/10/09 12:32:10;;;;;;;8.98;4.50;;;;;;;;;;5032110;28;20136;-73
2023/10/09 12:34:38;;;;;;;6.18;3.13;;;;;;;;;;5047906;28;20024;-73
2023/10/09 12:37:04;;;;;;;7.03;3.80;;;;;;;;;;5048689;28;20074;-73
2023/10/09 12:39:33;;;;;;;6.25;3.67;;;;;;;;;;4999799;28;1109585;-73
2023/10/09 12:42:06;;;;;;;7.68;4.07;;;;;;;;;;5045515;28;20124;-74
2023/10/09 12:44:42;;;;;;;5.88;3.33;;;;;;;;;;5051220;28;20147;-74
2023/10/09 12:47:11;;;;;;;5.47;3.45;;;;;;;;;;5048825;28;20572;-74
2023/10/09 12:49:40;;;;;;;17.05;3.40;;;;;;;;;;5046845;28;20033;-74
2023/10/09 12:52:16;;;;;;;7.93;4.57;;;;;;;;;;5020998;28;20054;-75
2023/10/09 12:54:48;;;;;;;6.28;3.30;;;;;;;;;;5021842;28;20033;-75
2023/10/09 12:57:16;;;;;;;8.35;3.60;;;;;;;;;;5047446;28;20036;-75
2023/10/09 12:59:49;;;;;;;5.30;3.20;;;;;;;;;;5050858;28;20496;-75
2023/10/09 13:02:30;;;;;;;6.05;3.72;;;;;;;;;;5036310;28;20797;-75
2023/10/09 13:04:57;;;;;;;6.80;3.50;;;;;;;;;;5031955;28;20037;-75
2023/10/09 13:07:22;;;;;;;5.95;3.55;;;;;;;;;;5047451;28;20623;-75
2023/10/09 13:10:08;;;;;;;7.05;3.20;;;;;;;;;;5051310;28;20052;-75
2023/10/09 13:12:38;;;;;;;7.75;4.20;;;;;;;;;;5044151;28;20037;-75
2023/10/09 13:15:09;;;;;;;6.50;3.60;;;;;;;;;;5035807;28;20197;-75
2023/10/09 13:17:37;;;;;;;6.80;4.05;;;;;;;;;;5046756;28;20408;-75
2023/10/09 13:20:12;;;;;;;137.73;34.80;;;;;;;;;;5045219;28;20113;-75
2023/10/09 13:22:38;;;;;;;5.57;2.80;;;;;;;;;;5047086;28;20037;-75
2023/10/09 13:25:05;;;;;;;5.97;3.45;;;;;;;;;;5039886;28;20042;-75
2023/10/09 13:27:34;;;;;;;8.00;3.90;;;;;;;;;;5031287;28;20150;-75
2023/10/09 13:30:05;;;;;;;4.72;3.20;;;;;;;;;;5041849;28;20036;-75
2023/10/09 13:32:35;;;;;;;8.98;4.53;;;;;;;;;;5046350;28;20043;-76
2023/10/09 13:35:05;;;;;;;5.97;3.60;;;;;;;;;;5030930;28;20025;-76
2023/10/09 13:37:36;;;;;;;4.65;2.58;;;;;;;;;;5046229;28;20039;-75
2023/10/09 13:40:09;;;;;;;9.25;4.90;;;;;;;;;;5020757;28;20112;-75
2023/10/09 13:42:35;;;;;;;11.15;4.75;;;;;;;;;;5042602;28;20131;-75
2023/10/09 13:45:04;;;;;;;6.82;3.90;;;;;;;;;;5046186;28;20075;-75
2023/10/09 13:47:32;;;;;;;8.98;5.20;;;;;;;;;;5037911;28;20111;-75
2023/10/09 13:49:59;;;;;;;6.00;3.30;;;;;;;;;;5051046;28;20443;-75
2023/10/09 13:52:24;;;;;;;6.78;3.60;;;;;;;;;;5034743;28;20037;-75
2023/10/09 13:54:50;;;;;;;7.38;4.43;;;;;;;;;;5046928;28;20037;-75
2023/10/09 13:57:15;;;;;;;11.55;5.75;;;;;;;;;;5047800;28;20040;-75
2023/10/09 13:59:43;;;;;;;8.77;5.20;;;;;;;;;;5052471;28;20575;-75
2023/10/09 14:02:09;;;;;;;6.72;3.95;;;;;;;;;;5046865;28;20098;-75
2023/10/09 14:04:36;;;;;;;5.57;4.00;;;;;;;;;;5040572;28;20029;-75
2023/10/09 14:07:05;;;;;;;8.38;4.93;;;;;;;;;;5014251;28;20073;-74
2023/10/09 14:09:31;;;;;;;6.63;4.55;;;;;;;;;;5039806;28;20052;-75
2023/10/09 14:12:08;;;;;;;10.77;4.47;;;;;;;;;;5045221;28;20409;-75
2023/10/09 14:14:46;;;;;;;7.88;4.95;;;;;;;;;;5041084;28;20048;-75
2023/10/09 14:17:13;;;;;;;10.48;5.68;;;;;;;;;;5033799;28;20072;-75
2023/10/09 14:19:47;;;;;;;6.45;5.22;;;;;;;;;;5042079;28;20032;-75
2023/10/09 14:22:19;;;;;;;10.23;6.50;;;;;;;;;;5042030;28;20098;-75
2023/10/09 14:24:46;;;;;;;8.93;5.65;;;;;;;;;;5043336;28;20686;-75
2023/10/09 14:27:19;;;;;;;11.65;6.65;;;;;;;;;;5027508;28;20485;-75
2023/10/09 14:29:49;;;;;;;6.25;4.18;;;;;;;;;;5032122;28;20128;-75
2023/10/09 14:32:15;;;;;;;7.63;4.38;;;;;;;;;;5040273;28;20037;-75
2023/10/09 14:34:54;;;;;;;8.73;6.75;;;;;;;;;;5042972;28;20032;-75
2023/10/09 14:37:19;;;;;;;7.72;5.22;;;;;;;;;;5041452;28;20033;-74
2023/10/09 14:39:50;;;;;;;7.45;4.72;;;;;;;;;;5044610;28;20035;-74
2023/10/09 14:42:17;;;;;;;;;;;;;;;;;;5033973;28;20049;-75
2023/10/09 14:44:46;;;;;;;8.43;5.28;;;;;;;;;;5042438;28;19916;-75
2023/10/09 14:47:14;;;;;;;11.05;6.40;;;;;;;;;;5045865;28;20151;-75
2023/10/09 14:49:46;;;;;;;9.77;6.10;;;;;;;;;;5047066;28;20596;-75
2023/10/09 14:52:16;;;;;;;11.75;7.93;;;;;;;;;;5040764;28;20128;-76
2023/10/09 14:54:42;;;;;;;12.43;7.93;;;;;;;;;;5035733;28;20095;-75
2023/10/09 14:57:07;;;;;;;9.15;6.90;;;;;;;;;;5031609;28;20037;-75
2023/10/09 14:59:33;;;;;;;13.55;8.30;;;;;;;;;;5045243;28;20033;-75
2023/10/09 15:01:59;;;;;;;13.23;8.82;;;;;;;;;;5046702;28;20037;-75
2023/10/09 15:04:25;;;;;;;13.68;9.05;;;;;;;;;;5047083;28;20910;-75
2023/10/09 15:06:53;;;;;;;14.93;9.82;;;;;;;;;;5047191;28;20041;-75
2023/10/09 15:09:29;;;;;;;16.42;10.50;;;;;;;;;;5001871;28;20042;-75
2023/10/09 15:11:55;;;;;;;12.95;8.55;;;;;;;;;;5049444;28;20555;-75
2023/10/09 15:14:21;;;;;;;14.30;8.48;;;;;;;;;;5046394;28;20040;-75
2023/10/09 15:16:50;;;;;;;17.67;11.25;;;;;;;;;;5050935;28;20041;-76
2023/10/09 15:19:16;;;;;;;12.10;8.35;;;;;;;;;;5030510;28;20533;-75
2023/10/09 15:21:45;;;;;;;12.98;8.80;;;;;;;;;;5036935;28;20040;-74
2023/10/09 15:24:19;;;;;;;7.10;5.63;;;;;;;;;;5029377;28;20164;-74
2023/10/09 15:26:52;;;;;;;7.85;6.30;;;;;;;;;;5031515;28;20609;-74
2023/10/09 15:29:19;;;;;;;16.33;11.00;;;;;;;;;;5045992;28;20043;-75
2023/10/09 15:31:46;;;;;;;16.85;11.05;;;;;;;;;;5046749;28;20040;-74
2023/10/09 15:34:13;;;;;;;13.13;9.70;;;;;;;;;;5036026;28;21346;-74
2023/10/09 15:36:39;;;;;;;12.18;8.70;;;;;;;;;;5041949;28;20516;-75
2023/10/09 15:39:08;;;;;;;11.75;8.52;;;;;;;;;;5018725;28;20153;-75
2023/10/09 15:41:34;;;;;;;12.55;9.10;;;;;;;;;;5044170;28;20103;-75
2023/10/09 15:44:01;;;;;;;13.95;10.50;;;;;;;;;;5045457;28;20029;-75
2023/10/09 15:46:27;;;;;;;8.93;6.22;;;;;;;;;;5035770;28;20094;-75
2023/10/09 15:48:55;;;;;;;9.88;8.05;;;;;;;;;;5046185;28;20155;-74
2023/10/09 15:51:22;;;;;;;8.02;6.28;;;;;;;;;;5044023;28;20071;-75
2023/10/09 15:53:48;;;;;;;19.10;12.43;;;;;;;;;;5044106;28;20045;-75
2023/10/09 15:56:14;;;;;;;19.80;13.63;;;;;;;;;;5042348;28;20072;-74
2023/10/09 15:58:43;;;;;;;14.63;10.43;;;;;;;;;;5032903;28;20583;-74
2023/10/09 16:01:18;;;;;;;12.27;7.82;;;;;;;;;;5036393;28;20111;-75
2023/10/09 16:03:44;;;;;;;9.57;7.78;;;;;;;;;;5027697;28;20033;-74
2023/10/09 16:06:11;;;;;;;15.70;12.45;;;;;;;;;;5042202;28;21151;-74
2023/10/09 16:08:38;;;;;;;7.68;6.00;;;;;;;;;;5041408;28;20036;-74
2023/10/09 16:11:05;;;;;;;6.70;5.60;;;;;;;;;;5046178;28;20501;-74
2023/10/09 16:13:32;;;;;;;8.20;6.05;;;;;;;;;;5033133;28;20194;-75
2023/10/09 16:15:59;;;;;;;8.65;6.95;;;;;;;;;;5041911;28;20036;-74
2023/10/09 16:18:27;;;;;;;14.43;11.00;;;;;;;;;;5043036;28;20035;-74
2023/10/09 16:20:54;;;;;;;17.23;12.90;;;;;;;;;;5045479;28;20045;-75
2023/10/09 16:23:19;;;;;;;16.10;12.73;;;;;;;;;;5044745;28;20036;-75
2023/10/09 16:25:45;;;;;;;15.45;10.60;;;;;;;;;;5047973;28;20032;-75
2023/10/09 16:28:10;;;;;;;16.50;12.07;;;;;;;;;;5027033;28;20037;-74
2023/10/09 16:30:36;;;;;;;20.80;14.02;;;;;;;;;;5044469;28;20297;-74
2023/10/09 16:33:04;;;;;;;19.88;12.10;;;;;;;;;;5035944;28;20036;-74
2023/10/09 16:35:30;;;;;;;9.50;7.50;;;;;;;;;;5051596;28;20102;-74
2023/10/09 16:37:57;;;;;;;12.95;9.65;;;;;;;;;;5049159;28;20075;-74
2023/10/09 16:40:23;;;;;;;17.10;12.02;;;;;;;;;;5037385;28;20037;-74
2023/10/09 16:42:49;;;;;;;8.88;7.90;;;;;;;;;;5045998;28;20075;-75
2023/10/09 16:45:15;;;;;;;12.52;10.45;;;;;;;;;;5045237;28;20048;-74
2023/10/09 16:47:45;;;;;;;10.43;8.02;;;;;;;;;;5048914;28;20045;-74
2023/10/09 16:50:13;;;;;;;8.10;7.22;;;;;;;;;;5046319;28;20065;-74
2023/10/09 16:52:39;;;;;;;16.65;10.98;;;;;;;;;;5056007;28;20095;-74
2023/10/09 16:55:10;;;;;;;9.77;7.95;;;;;;;;;;5038749;28;20029;-74
2023/10/09 16:57:40;;;;;;;15.38;10.60;;;;;;;;;;5036974;28;20032;-74
2023/10/09 17:00:13;;;;;;;16.42;12.63;;;;;;;;;;5030557;28;20430;-74
2023/10/09 17:02:41;;;;;;;7.90;6.35;;;;;;;;;;5050408;28;20448;-73
2023/10/09 17:05:09;;;;;;;14.18;11.60;;;;;;;;;;5029320;28;20032;-73
2023/10/09 17:07:35;;;;;;;14.38;10.15;;;;;;;;;;5038651;28;20040;-74
2023/10/09 17:10:09;;;;;;;15.90;11.55;;;;;;;;;;5047904;28;20051;-73
2023/10/09 17:12:35;;;;;;;15.07;11.40;;;;;;;;;;5047799;28;20044;-74
2023/10/09 17:15:00;;;;;;;17.60;10.57;;;;;;;;;;5044693;28;20525;-74
2023/10/09 17:17:26;;;;;;;20.48;13.77;;;;;;;;;;5049142;28;20040;-74
2023/10/09 17:19:51;;;;;;;7.15;6.43;;;;;;;;;;5021637;28;20053;-74
2023/10/09 17:22:17;;;;;;;12.35;10.48;;;;;;;;;;5048381;28;20036;-74
2023/10/09 17:24:42;;;;;;;18.75;11.88;;;;;;;;;;5035250;28;20549;-73
2023/10/09 17:27:08;;;;;;;19.85;12.25;;;;;;;;;;5048209;28;20037;-74
2023/10/09 17:29:37;;;;;;;12.45;8.52;;;;;;;;;;5038861;28;20429;-73
2023/10/09 17:32:04;;;;;;;17.65;13.02;;;;;;;;;;5047475;28;20087;-74
2023/10/09 17:34:33;;;;;;;20.05;12.98;;;;;;;;;;5038373;28;20626;-73
2023/10/09 17:36:58;;;;;;;20.95;14.43;;;;;;;;;;5032793;28;20124;-74
2023/10/09 17:39:26;;;;;;;15.75;12.02;;;;;;;;;;5048038;28;20138;-74
2023/10/09 17:41:53;;;;;;;19.27;13.48;;;;;;;;;;5047949;28;20076;-74
2023/10/09 17:44:18;;;;;;;14.48;9.88;;;;;;;;;;5051240;28;20043;-74
2023/10/09 17:46:44;;;;;;;24.80;15.30;;;;;;;;;;5036540;28;20041;-74
2023/10/09 17:49:09;;;;;;;18.02;12.55;;;;;;;;;;5039745;28;20036;-74
2023/10/09 17:51:35;;;;;;;21.45;13.98;;;;;;;;;;5050863;28;20539;-74
2023/10/09 17:54:01;;;;;;;14.80;10.95;;;;;;;;;;5030531;28;20037;-74
2023/10/09 17:56:26;;;;;;;17.75;13.02;;;;;;;;;;5038467;28;20036;-74
2023/10/09 17:58:52;;;;;;;21.75;13.90;;;;;;;;;;5025570;28;20037;-74